HKE821 ROAH-VHHH
Flight info
| Callsign | HKE821 |
|---|---|
| Flight time | 2h 21m |
| Altitude | 34000 |
| Route | GANJU Y576 LILRA Y573 SEDKU R595 APU A1 ELATO V522 ABBEY |
| Aircraft | A21N/M-SDE2E3FGHIRWXY/LB1 |
Departure
| Time | 2026-05-05 13:21 |
|---|---|
| Airport | Naha International Airport (ROAH) |
Arrival
| Time | 2026-05-05 15:42 |
|---|---|
| Airport | Hong Kong International Airport (VHHH) |
| Time | Latitude | Longitude | Altitude | Speed | Heading |
|---|---|---|---|---|---|
| 2026-05-05 13:06 | 26.20953 | 127.64966 | 27 ft | 0 kts | 88° |
| 2026-05-05 13:09 | 26.20953 | 127.64965 | 54 ft | 1 kts | 88° |
| 2026-05-05 13:09 | 26.20952 | 127.64943 | 26 ft | 4 kts | 89° |
| 2026-05-05 13:09 | 26.20956 | 127.64915 | 30 ft | 4 kts | 117° |
| 2026-05-05 13:10 | 26.20967 | 127.64898 | 28 ft | 0 kts | 141° |
| 2026-05-05 13:10 | 26.20974 | 127.64893 | 30 ft | 4 kts | 153° |
| 2026-05-05 13:11 | 26.20998 | 127.64885 | 28 ft | 3 kts | 177° |
| 2026-05-05 13:11 | 26.21025 | 127.64884 | 28 ft | 3 kts | 177° |
| 2026-05-05 13:11 | 26.21029 | 127.64884 | 28 ft | 1 kts | 177° |
| 2026-05-05 13:14 | 26.21024 | 127.64884 | 28 ft | 2 kts | 179° |
| 2026-05-05 13:14 | 26.21002 | 127.64884 | 27 ft | 4 kts | 179° |
| 2026-05-05 13:14 | 26.20962 | 127.64884 | 29 ft | 7 kts | 194° |
| 2026-05-05 13:14 | 26.20920 | 127.64840 | 25 ft | 10 kts | 246° |
| 2026-05-05 13:15 | 26.20910 | 127.64756 | 26 ft | 12 kts | 263° |
| 2026-05-05 13:15 | 26.20840 | 127.64734 | 22 ft | 13 kts | 178° |
| 2026-05-05 13:15 | 26.20745 | 127.64739 | 22 ft | 14 kts | 177° |
| 2026-05-05 13:15 | 26.20641 | 127.64745 | 22 ft | 16 kts | 178° |
| 2026-05-05 13:16 | 26.20528 | 127.64749 | 23 ft | 17 kts | 178° |
| 2026-05-05 13:16 | 26.20406 | 127.64754 | 23 ft | 18 kts | 177° |
| 2026-05-05 13:16 | 26.20279 | 127.64761 | 22 ft | 19 kts | 177° |
| 2026-05-05 13:16 | 26.20145 | 127.64769 | 23 ft | 20 kts | 178° |
| 2026-05-05 13:17 | 26.20005 | 127.64774 | 23 ft | 21 kts | 177° |
| 2026-05-05 13:17 | 26.19860 | 127.64781 | 22 ft | 21 kts | 178° |
| 2026-05-05 13:17 | 26.19708 | 127.64788 | 22 ft | 22 kts | 177° |
| 2026-05-05 13:17 | 26.19551 | 127.64798 | 22 ft | 23 kts | 180° |
| 2026-05-05 13:18 | 26.19387 | 127.64802 | 23 ft | 24 kts | 176° |
| 2026-05-05 13:18 | 26.19217 | 127.64811 | 22 ft | 25 kts | 178° |
| 2026-05-05 13:18 | 26.19043 | 127.64821 | 23 ft | 26 kts | 178° |
| 2026-05-05 13:18 | 26.18860 | 127.64828 | 22 ft | 27 kts | 176° |
| 2026-05-05 13:19 | 26.18681 | 127.64837 | 23 ft | 22 kts | 178° |
| 2026-05-05 13:19 | 26.18526 | 127.64844 | 22 ft | 23 kts | 177° |
| 2026-05-05 13:19 | 26.18381 | 127.64851 | 22 ft | 18 kts | 178° |
| 2026-05-05 13:19 | 26.18284 | 127.64850 | 22 ft | 11 kts | 201° |
| 2026-05-05 13:20 | 26.18241 | 127.64783 | 22 ft | 12 kts | 268° |
| 2026-05-05 13:20 | 26.18242 | 127.64687 | 21 ft | 11 kts | 271° |
| 2026-05-05 13:20 | 26.18308 | 127.64648 | 22 ft | 13 kts | 358° |
| 2026-05-05 13:20 | 26.18419 | 127.64643 | 22 ft | 31 kts | 357° |
| 2026-05-05 13:21 | 26.18888 | 127.64620 | 24 ft | 102 kts | 358° |
| 2026-05-05 13:21 | 26.19799 | 127.64577 | 21 ft | 158 kts | 357° |
| 2026-05-05 13:21 | 26.20953 | 127.64515 | 403 ft | 166 kts | 0° |
| 2026-05-05 13:21 | 26.22121 | 127.64371 | 923 ft | 170 kts | 357° |
| 2026-05-05 13:22 | 26.23321 | 127.64350 | 1415 ft | 182 kts | 6° |
| 2026-05-05 13:22 | 26.24683 | 127.64346 | 1830 ft | 207 kts | 4° |
| 2026-05-05 13:22 | 26.26177 | 127.64222 | 2407 ft | 226 kts | 349° |
| 2026-05-05 13:22 | 26.27696 | 127.63378 | 2690 ft | 260 kts | 330° |
| 2026-05-05 13:23 | 26.29283 | 127.62288 | 3285 ft | 275 kts | 330° |
| 2026-05-05 13:23 | 26.30933 | 127.61189 | 4087 ft | 279 kts | 329° |
| 2026-05-05 13:23 | 26.32612 | 127.60080 | 4940 ft | 282 kts | 328° |
| 2026-05-05 13:23 | 26.34301 | 127.58950 | 5786 ft | 284 kts | 327° |
| 2026-05-05 13:24 | 26.35995 | 127.57801 | 6642 ft | 286 kts | 325° |
| 2026-05-05 13:24 | 26.37707 | 127.56652 | 7418 ft | 289 kts | 326° |
| 2026-05-05 13:24 | 26.39393 | 127.55432 | 8208 ft | 288 kts | 315° |
| 2026-05-05 13:24 | 26.40614 | 127.53706 | 8940 ft | 283 kts | 290° |
| 2026-05-05 13:25 | 26.41066 | 127.51623 | 9811 ft | 273 kts | 266° |
| 2026-05-05 13:25 | 26.40806 | 127.49543 | 10585 ft | 272 kts | 251° |
| 2026-05-05 13:25 | 26.39863 | 127.47653 | 10838 ft | 290 kts | 230° |
| 2026-05-05 13:25 | 26.38476 | 127.45920 | 11166 ft | 309 kts | 227° |
| 2026-05-05 13:26 | 26.36997 | 127.44110 | 11645 ft | 320 kts | 228° |
| 2026-05-05 13:26 | 26.35502 | 127.42248 | 12329 ft | 324 kts | 229° |
| 2026-05-05 13:26 | 26.33971 | 127.40392 | 13079 ft | 326 kts | 226° |
| 2026-05-05 13:26 | 26.32349 | 127.38620 | 13846 ft | 327 kts | 225° |
| 2026-05-05 13:27 | 26.30716 | 127.36850 | 14504 ft | 329 kts | 225° |
| 2026-05-05 13:27 | 26.29074 | 127.35063 | 15136 ft | 331 kts | 225° |
| 2026-05-05 13:27 | 26.27422 | 127.33262 | 15754 ft | 334 kts | 226° |
| 2026-05-05 13:27 | 26.25760 | 127.31445 | 16372 ft | 336 kts | 226° |
| 2026-05-05 13:28 | 26.24084 | 127.29616 | 16971 ft | 338 kts | 225° |
| 2026-05-05 13:28 | 26.22401 | 127.27780 | 17577 ft | 340 kts | 225° |
| 2026-05-05 13:28 | 26.20734 | 127.25962 | 18182 ft | 341 kts | 225° |
| 2026-05-05 13:28 | 26.19038 | 127.24112 | 18721 ft | 342 kts | 225° |
| 2026-05-05 13:29 | 26.17326 | 127.22249 | 19179 ft | 346 kts | 226° |
| 2026-05-05 13:29 | 26.15600 | 127.20364 | 19599 ft | 350 kts | 226° |
| 2026-05-05 13:29 | 26.13857 | 127.18455 | 20048 ft | 353 kts | 226° |
| 2026-05-05 13:29 | 26.12221 | 127.16409 | 20501 ft | 355 kts | 234° |
| 2026-05-05 13:30 | 26.10854 | 127.14116 | 20975 ft | 357 kts | 238° |
| 2026-05-05 13:30 | 26.09540 | 127.11760 | 21454 ft | 360 kts | 238° |
| 2026-05-05 13:30 | 26.08220 | 127.09385 | 21936 ft | 362 kts | 238° |
| 2026-05-05 13:30 | 26.06884 | 127.06997 | 22391 ft | 365 kts | 238° |
| 2026-05-05 13:31 | 26.05527 | 127.04590 | 22809 ft | 369 kts | 238° |
| 2026-05-05 13:31 | 26.04153 | 127.02157 | 23217 ft | 373 kts | 238° |
| 2026-05-05 13:31 | 26.02764 | 126.99702 | 23632 ft | 376 kts | 238° |
| 2026-05-05 13:31 | 26.01366 | 126.97235 | 24023 ft | 378 kts | 238° |
| 2026-05-05 13:32 | 25.99959 | 126.94756 | 24412 ft | 380 kts | 238° |
| 2026-05-05 13:32 | 25.98544 | 126.92263 | 24795 ft | 381 kts | 239° |
| 2026-05-05 13:32 | 25.97126 | 126.89765 | 25169 ft | 383 kts | 239° |
| 2026-05-05 13:32 | 25.95704 | 126.87262 | 25536 ft | 384 kts | 239° |
| 2026-05-05 13:33 | 25.94274 | 126.84744 | 25889 ft | 386 kts | 239° |
| 2026-05-05 13:33 | 25.92836 | 126.82215 | 26250 ft | 388 kts | 239° |
| 2026-05-05 13:33 | 25.91391 | 126.79677 | 26601 ft | 390 kts | 239° |
| 2026-05-05 13:33 | 25.89940 | 126.77127 | 26951 ft | 391 kts | 239° |
| 2026-05-05 13:34 | 25.88479 | 126.74562 | 27306 ft | 393 kts | 239° |
| 2026-05-05 13:34 | 25.87032 | 126.71985 | 27659 ft | 394 kts | 241° |
| 2026-05-05 13:34 | 25.85665 | 126.69342 | 27997 ft | 395 kts | 242° |
| 2026-05-05 13:34 | 25.84764 | 126.67579 | 28214 ft | 396 kts | 242° |
| 2026-05-05 13:35 | 25.83402 | 126.64914 | 28541 ft | 398 kts | 242° |
| 2026-05-05 13:35 | 25.82029 | 126.62233 | 28878 ft | 400 kts | 242° |
| 2026-05-05 13:35 | 25.80653 | 126.59547 | 29186 ft | 402 kts | 242° |
| 2026-05-05 13:35 | 25.79267 | 126.56849 | 29495 ft | 403 kts | 242° |
| 2026-05-05 13:36 | 25.77873 | 126.54136 | 29799 ft | 405 kts | 242° |
| 2026-05-05 13:36 | 25.76480 | 126.51429 | 30202 ft | 404 kts | 242° |
| 2026-05-05 13:36 | 25.75091 | 126.48728 | 30536 ft | 403 kts | 242° |
| 2026-05-05 13:36 | 25.73700 | 126.46027 | 30813 ft | 403 kts | 242° |
| 2026-05-05 13:37 | 25.72309 | 126.43326 | 31166 ft | 402 kts | 242° |
| 2026-05-05 13:37 | 25.70924 | 126.40641 | 31524 ft | 400 kts | 242° |
| 2026-05-05 13:37 | 25.69547 | 126.37972 | 31893 ft | 398 kts | 242° |
| 2026-05-05 13:37 | 25.68175 | 126.35312 | 32264 ft | 396 kts | 242° |
| 2026-05-05 13:38 | 25.66830 | 126.32707 | 32628 ft | 394 kts | 242° |
| 2026-05-05 13:38 | 25.65470 | 126.30077 | 32969 ft | 392 kts | 242° |
| 2026-05-05 13:38 | 25.64118 | 126.27463 | 33301 ft | 390 kts | 242° |
| 2026-05-05 13:38 | 25.62773 | 126.24865 | 33627 ft | 388 kts | 242° |
| 2026-05-05 13:39 | 25.61432 | 126.22274 | 33867 ft | 388 kts | 242° |
| 2026-05-05 13:39 | 25.60088 | 126.19677 | 34074 ft | 389 kts | 242° |
| 2026-05-05 13:39 | 25.57402 | 126.14497 | 34092 ft | 385 kts | 242° |
| 2026-05-05 13:40 | 25.54736 | 126.09358 | 34079 ft | 385 kts | 242° |
| 2026-05-05 13:40 | 25.52068 | 126.04224 | 34076 ft | 384 kts | 242° |
| 2026-05-05 13:41 | 25.49400 | 125.99093 | 34077 ft | 384 kts | 242° |
| 2026-05-05 13:41 | 25.46730 | 125.93968 | 34074 ft | 384 kts | 242° |
| 2026-05-05 13:42 | 25.44061 | 125.88847 | 34070 ft | 384 kts | 242° |
| 2026-05-05 13:42 | 25.41380 | 125.83711 | 34066 ft | 387 kts | 242° |
| 2026-05-05 13:43 | 25.38688 | 125.78554 | 34072 ft | 387 kts | 242° |
| 2026-05-05 13:43 | 25.35991 | 125.73400 | 34078 ft | 387 kts | 242° |
| 2026-05-05 13:44 | 25.33275 | 125.68254 | 34069 ft | 388 kts | 241° |
| 2026-05-05 13:44 | 25.30534 | 125.63119 | 34082 ft | 388 kts | 241° |
| 2026-05-05 13:45 | 25.27794 | 125.57989 | 34065 ft | 388 kts | 241° |
| 2026-05-05 13:45 | 25.25057 | 125.52862 | 34049 ft | 388 kts | 241° |
| 2026-05-05 13:46 | 25.22315 | 125.47729 | 34065 ft | 388 kts | 241° |
| 2026-05-05 13:46 | 25.19569 | 125.42597 | 34064 ft | 388 kts | 241° |
| 2026-05-05 13:47 | 25.16824 | 125.37470 | 34064 ft | 388 kts | 241° |
| 2026-05-05 13:47 | 25.14079 | 125.32351 | 34067 ft | 388 kts | 241° |
| 2026-05-05 13:48 | 25.11327 | 125.27225 | 34057 ft | 388 kts | 241° |
| 2026-05-05 13:48 | 25.08296 | 125.22283 | 34026 ft | 391 kts | 235° |
| 2026-05-05 13:49 | 25.05020 | 125.17477 | 34033 ft | 392 kts | 235° |
| 2026-05-05 13:49 | 25.01749 | 125.12673 | 34035 ft | 392 kts | 235° |
| 2026-05-05 13:50 | 24.98407 | 125.07926 | 34031 ft | 392 kts | 233° |
| 2026-05-05 13:50 | 24.94955 | 125.03266 | 34032 ft | 392 kts | 233° |
| 2026-05-05 13:51 | 24.91504 | 124.98614 | 34049 ft | 392 kts | 233° |
| 2026-05-05 13:51 | 24.88066 | 124.93982 | 34019 ft | 394 kts | 233° |
| 2026-05-05 13:52 | 24.84974 | 124.89031 | 34032 ft | 392 kts | 245° |
| 2026-05-05 13:52 | 24.83630 | 124.83237 | 34039 ft | 396 kts | 264° |
| 2026-05-05 13:53 | 24.84093 | 124.77160 | 34046 ft | 401 kts | 274° |
| 2026-05-05 13:53 | 24.84882 | 124.71084 | 34056 ft | 400 kts | 274° |
| 2026-05-05 13:54 | 24.85631 | 124.65009 | 34022 ft | 400 kts | 273° |
| 2026-05-05 13:54 | 24.86360 | 124.58934 | 34023 ft | 400 kts | 273° |
| 2026-05-05 13:55 | 24.87091 | 124.52856 | 34027 ft | 400 kts | 273° |
| 2026-05-05 13:55 | 24.87816 | 124.46815 | 34041 ft | 400 kts | 273° |
| 2026-05-05 13:56 | 24.88541 | 124.40733 | 34047 ft | 400 kts | 273° |
| 2026-05-05 13:56 | 24.89266 | 124.34660 | 34042 ft | 400 kts | 273° |
| 2026-05-05 13:57 | 24.89986 | 124.28584 | 34044 ft | 400 kts | 273° |
| 2026-05-05 13:57 | 24.90700 | 124.22510 | 34054 ft | 400 kts | 273° |
| 2026-05-05 13:58 | 24.91411 | 124.16450 | 34052 ft | 398 kts | 273° |
| 2026-05-05 13:58 | 24.92117 | 124.10412 | 34053 ft | 398 kts | 273° |
| 2026-05-05 13:59 | 24.93172 | 124.01339 | 34050 ft | 398 kts | 273° |
| 2026-05-05 14:00 | 24.94052 | 123.93293 | 34081 ft | 394 kts | 272° |
| 2026-05-05 14:00 | 24.94786 | 123.86306 | 34059 ft | 393 kts | 272° |
| 2026-05-05 14:01 | 24.95416 | 123.80322 | 34040 ft | 393 kts | 272° |
| 2026-05-05 14:01 | 24.96050 | 123.74299 | 34046 ft | 396 kts | 272° |
| 2026-05-05 14:02 | 24.96683 | 123.68266 | 34062 ft | 396 kts | 272° |
| 2026-05-05 14:02 | 24.97311 | 123.62261 | 34051 ft | 394 kts | 272° |
| 2026-05-05 14:03 | 24.97931 | 123.56301 | 34054 ft | 394 kts | 272° |
| 2026-05-05 14:03 | 24.98557 | 123.50261 | 34058 ft | 394 kts | 272° |
| 2026-05-05 14:04 | 24.99176 | 123.44265 | 34057 ft | 394 kts | 272° |
| 2026-05-05 14:04 | 24.99793 | 123.38270 | 34050 ft | 394 kts | 272° |
| 2026-05-05 14:05 | 25.00403 | 123.32307 | 34059 ft | 394 kts | 272° |
| 2026-05-05 14:05 | 25.01014 | 123.26308 | 34058 ft | 394 kts | 272° |
| 2026-05-05 14:06 | 25.01623 | 123.20308 | 34055 ft | 394 kts | 272° |
| 2026-05-05 14:06 | 25.02231 | 123.14309 | 34072 ft | 394 kts | 272° |
| 2026-05-05 14:07 | 25.02834 | 123.08294 | 34048 ft | 394 kts | 272° |
| 2026-05-05 14:07 | 25.03433 | 123.02283 | 34045 ft | 394 kts | 272° |
| 2026-05-05 14:08 | 25.04034 | 122.96277 | 34044 ft | 394 kts | 272° |
| 2026-05-05 14:08 | 25.04633 | 122.90269 | 34047 ft | 394 kts | 272° |
| 2026-05-05 14:09 | 25.05230 | 122.84254 | 34052 ft | 395 kts | 272° |
| 2026-05-05 14:09 | 25.05826 | 122.78226 | 34048 ft | 395 kts | 272° |
| 2026-05-05 14:10 | 25.06419 | 122.72203 | 34048 ft | 395 kts | 272° |
| 2026-05-05 14:10 | 25.07010 | 122.66174 | 34048 ft | 395 kts | 272° |
| 2026-05-05 14:11 | 25.07596 | 122.60146 | 34069 ft | 398 kts | 272° |
| 2026-05-05 14:11 | 25.08189 | 122.54047 | 34052 ft | 400 kts | 272° |
| 2026-05-05 14:12 | 25.08775 | 122.47939 | 34047 ft | 401 kts | 272° |
| 2026-05-05 14:12 | 25.09362 | 122.41827 | 34047 ft | 401 kts | 272° |
| 2026-05-05 14:13 | 25.09952 | 122.35708 | 34046 ft | 401 kts | 272° |
| 2026-05-05 14:13 | 25.10541 | 122.29603 | 34048 ft | 400 kts | 272° |
| 2026-05-05 14:14 | 25.11076 | 122.23491 | 34048 ft | 400 kts | 271° |
| 2026-05-05 14:14 | 25.11580 | 122.17380 | 34050 ft | 400 kts | 271° |
| 2026-05-05 14:15 | 25.12089 | 122.11263 | 34050 ft | 401 kts | 271° |
| 2026-05-05 14:15 | 25.12604 | 122.05139 | 34041 ft | 401 kts | 271° |
| 2026-05-05 14:16 | 25.13126 | 121.99097 | 34043 ft | 396 kts | 271° |
| 2026-05-05 14:16 | 25.13723 | 121.93008 | 34042 ft | 397 kts | 272° |
| 2026-05-05 14:17 | 25.14321 | 121.86996 | 34038 ft | 396 kts | 272° |
| 2026-05-05 14:17 | 25.14910 | 121.80947 | 34024 ft | 396 kts | 272° |
| 2026-05-05 14:18 | 25.15398 | 121.75893 | 34030 ft | 400 kts | 272° |
| 2026-05-05 14:18 | 25.15989 | 121.69781 | 34024 ft | 401 kts | 272° |
| 2026-05-05 14:19 | 25.16580 | 121.63672 | 34022 ft | 400 kts | 272° |
| 2026-05-05 14:19 | 25.17097 | 121.57562 | 34024 ft | 398 kts | 268° |
| 2026-05-05 14:20 | 25.16200 | 121.51598 | 34039 ft | 395 kts | 249° |
| 2026-05-05 14:20 | 25.13328 | 121.46432 | 34036 ft | 399 kts | 232° |
| 2026-05-05 14:21 | 25.09689 | 121.41813 | 34025 ft | 398 kts | 231° |
| 2026-05-05 14:21 | 25.06067 | 121.37172 | 34021 ft | 399 kts | 232° |
| 2026-05-05 14:22 | 25.02469 | 121.32520 | 33999 ft | 399 kts | 232° |
| 2026-05-05 14:22 | 24.98884 | 121.27885 | 34018 ft | 397 kts | 232° |
| 2026-05-05 14:23 | 24.95295 | 121.23250 | 34021 ft | 399 kts | 232° |
| 2026-05-05 14:23 | 24.91688 | 121.18597 | 34021 ft | 399 kts | 232° |
| 2026-05-05 14:24 | 24.88078 | 121.13940 | 34018 ft | 400 kts | 232° |
| 2026-05-05 14:24 | 24.84492 | 121.09318 | 34024 ft | 399 kts | 232° |
| 2026-05-05 14:25 | 24.80881 | 121.04674 | 34037 ft | 399 kts | 232° |
| 2026-05-05 14:25 | 24.77245 | 120.99993 | 34034 ft | 399 kts | 232° |
| 2026-05-05 14:26 | 24.73651 | 120.95375 | 34033 ft | 400 kts | 232° |
| 2026-05-05 14:26 | 24.70032 | 120.90727 | 34023 ft | 400 kts | 232° |
| 2026-05-05 14:27 | 24.66406 | 120.86078 | 34022 ft | 400 kts | 232° |
| 2026-05-05 14:27 | 24.62785 | 120.81438 | 34021 ft | 400 kts | 232° |
| 2026-05-05 14:28 | 24.59148 | 120.76779 | 34019 ft | 403 kts | 232° |
| 2026-05-05 14:28 | 24.55454 | 120.72127 | 34030 ft | 405 kts | 230° |
| 2026-05-05 14:29 | 24.51557 | 120.67661 | 34036 ft | 405 kts | 229° |
| 2026-05-05 14:29 | 24.47648 | 120.63209 | 34041 ft | 404 kts | 229° |
| 2026-05-05 14:30 | 24.43741 | 120.58758 | 34045 ft | 404 kts | 229° |
| 2026-05-05 14:30 | 24.39866 | 120.54344 | 34041 ft | 404 kts | 229° |
| 2026-05-05 14:31 | 24.35976 | 120.49912 | 34037 ft | 403 kts | 229° |
| 2026-05-05 14:31 | 24.32082 | 120.45487 | 34041 ft | 403 kts | 229° |
| 2026-05-05 14:32 | 24.28188 | 120.41064 | 34037 ft | 403 kts | 229° |
| 2026-05-05 14:32 | 24.24282 | 120.36630 | 34036 ft | 405 kts | 229° |
| 2026-05-05 14:33 | 24.20362 | 120.32178 | 34027 ft | 406 kts | 229° |
| 2026-05-05 14:33 | 24.16444 | 120.27732 | 34010 ft | 405 kts | 229° |
| 2026-05-05 14:34 | 24.12523 | 120.23294 | 34018 ft | 405 kts | 229° |
| 2026-05-05 14:34 | 24.08605 | 120.18863 | 34027 ft | 404 kts | 229° |
| 2026-05-05 14:35 | 24.04690 | 120.14441 | 34044 ft | 405 kts | 229° |
| 2026-05-05 14:35 | 24.00769 | 120.10018 | 34050 ft | 405 kts | 230° |
| 2026-05-05 14:36 | 23.96848 | 120.05595 | 34038 ft | 405 kts | 229° |
| 2026-05-05 14:36 | 23.92924 | 120.01178 | 34022 ft | 404 kts | 230° |
| 2026-05-05 14:37 | 23.89012 | 119.96773 | 34027 ft | 404 kts | 230° |
| 2026-05-05 14:37 | 23.85090 | 119.92369 | 34028 ft | 404 kts | 230° |
| 2026-05-05 14:38 | 23.81196 | 119.87994 | 34031 ft | 404 kts | 230° |
| 2026-05-05 14:38 | 23.77276 | 119.83593 | 34032 ft | 404 kts | 230° |
| 2026-05-05 14:39 | 23.73345 | 119.79185 | 33991 ft | 406 kts | 230° |
| 2026-05-05 14:39 | 23.69398 | 119.74763 | 34012 ft | 407 kts | 230° |
| 2026-05-05 14:40 | 23.65444 | 119.70340 | 34022 ft | 407 kts | 230° |
| 2026-05-05 14:40 | 23.61487 | 119.65914 | 34022 ft | 407 kts | 230° |
| 2026-05-05 14:41 | 23.58003 | 119.61161 | 34025 ft | 402 kts | 240° |
| 2026-05-05 14:41 | 23.55034 | 119.55994 | 34025 ft | 402 kts | 240° |
| 2026-05-05 14:42 | 23.52063 | 119.50832 | 34025 ft | 403 kts | 240° |
| 2026-05-05 14:42 | 23.49068 | 119.45666 | 34013 ft | 403 kts | 240° |
| 2026-05-05 14:43 | 23.46071 | 119.40505 | 34019 ft | 403 kts | 240° |
| 2026-05-05 14:43 | 23.43070 | 119.35343 | 34023 ft | 403 kts | 240° |
| 2026-05-05 14:44 | 23.40066 | 119.30183 | 34023 ft | 403 kts | 240° |
| 2026-05-05 14:44 | 23.37064 | 119.25028 | 34026 ft | 403 kts | 240° |
| 2026-05-05 14:45 | 23.34059 | 119.19872 | 34026 ft | 404 kts | 240° |
| 2026-05-05 14:45 | 23.31064 | 119.14744 | 34024 ft | 404 kts | 240° |
| 2026-05-05 14:46 | 23.28052 | 119.09581 | 34023 ft | 404 kts | 240° |
| 2026-05-05 14:46 | 23.25033 | 119.04416 | 34031 ft | 404 kts | 240° |
| 2026-05-05 14:47 | 23.22012 | 118.99252 | 34026 ft | 405 kts | 240° |
| 2026-05-05 14:47 | 23.18983 | 118.94085 | 34025 ft | 405 kts | 240° |
| 2026-05-05 14:48 | 23.15954 | 118.88918 | 34027 ft | 405 kts | 241° |
| 2026-05-05 14:48 | 23.12920 | 118.83754 | 34023 ft | 405 kts | 240° |
| 2026-05-05 14:49 | 23.09886 | 118.78592 | 33996 ft | 405 kts | 240° |
| 2026-05-05 14:49 | 23.06845 | 118.73424 | 34023 ft | 406 kts | 241° |
| 2026-05-05 14:50 | 23.03800 | 118.68251 | 34021 ft | 406 kts | 241° |
| 2026-05-05 14:50 | 23.00751 | 118.63079 | 34034 ft | 407 kts | 241° |
| 2026-05-05 14:51 | 22.97694 | 118.57901 | 34029 ft | 407 kts | 241° |
| 2026-05-05 14:51 | 22.94636 | 118.52726 | 34019 ft | 407 kts | 241° |
| 2026-05-05 14:52 | 22.91569 | 118.47565 | 34025 ft | 407 kts | 241° |
| 2026-05-05 14:52 | 22.88495 | 118.42404 | 33990 ft | 407 kts | 241° |
| 2026-05-05 14:53 | 22.85409 | 118.37227 | 34017 ft | 409 kts | 241° |
| 2026-05-05 14:53 | 22.82320 | 118.32047 | 34024 ft | 409 kts | 241° |
| 2026-05-05 14:54 | 22.79230 | 118.26869 | 34025 ft | 409 kts | 241° |
| 2026-05-05 14:54 | 22.76138 | 118.21695 | 34027 ft | 409 kts | 241° |
| 2026-05-05 14:55 | 22.73065 | 118.16556 | 34029 ft | 409 kts | 241° |
| 2026-05-05 14:55 | 22.69968 | 118.11383 | 34021 ft | 409 kts | 241° |
| 2026-05-05 14:56 | 22.66873 | 118.06214 | 34031 ft | 409 kts | 241° |
| 2026-05-05 14:56 | 22.63769 | 118.01040 | 34028 ft | 410 kts | 241° |
| 2026-05-05 14:57 | 22.60662 | 117.95868 | 34024 ft | 410 kts | 241° |
| 2026-05-05 14:57 | 22.57574 | 117.90683 | 34021 ft | 410 kts | 241° |
| 2026-05-05 14:58 | 22.54496 | 117.85499 | 34024 ft | 410 kts | 241° |
| 2026-05-05 14:58 | 22.51415 | 117.80313 | 34028 ft | 410 kts | 241° |
| 2026-05-05 14:59 | 22.48335 | 117.75140 | 34027 ft | 409 kts | 241° |
| 2026-05-05 14:59 | 22.45252 | 117.69968 | 34009 ft | 409 kts | 241° |
| 2026-05-05 15:00 | 22.42685 | 117.65664 | 34025 ft | 410 kts | 241° |
| 2026-05-05 15:00 | 22.39071 | 117.59611 | 34029 ft | 410 kts | 241° |
| 2026-05-05 15:01 | 22.36495 | 117.55302 | 34027 ft | 411 kts | 241° |
| 2026-05-05 15:01 | 22.33869 | 117.49890 | 34018 ft | 404 kts | 255° |
| 2026-05-05 15:02 | 22.33148 | 117.43920 | 34033 ft | 402 kts | 270° |
| 2026-05-05 15:02 | 22.33091 | 117.37883 | 34027 ft | 402 kts | 270° |
| 2026-05-05 15:03 | 22.33001 | 117.31843 | 34025 ft | 402 kts | 269° |
| 2026-05-05 15:03 | 22.32895 | 117.25808 | 34026 ft | 402 kts | 269° |
| 2026-05-05 15:04 | 22.32781 | 117.19766 | 34030 ft | 402 kts | 269° |
| 2026-05-05 15:04 | 22.32666 | 117.13737 | 34029 ft | 401 kts | 269° |
| 2026-05-05 15:05 | 22.32489 | 117.04700 | 34030 ft | 401 kts | 269° |
| 2026-05-05 15:06 | 22.32368 | 116.98716 | 34029 ft | 401 kts | 269° |
| 2026-05-05 15:06 | 22.32245 | 116.92687 | 34030 ft | 401 kts | 269° |
| 2026-05-05 15:07 | 22.32121 | 116.86663 | 34034 ft | 401 kts | 269° |
| 2026-05-05 15:07 | 22.31992 | 116.80635 | 34003 ft | 401 kts | 269° |
| 2026-05-05 15:08 | 22.31862 | 116.74604 | 34027 ft | 402 kts | 269° |
| 2026-05-05 15:08 | 22.31730 | 116.68572 | 34030 ft | 402 kts | 269° |
| 2026-05-05 15:09 | 22.31597 | 116.62577 | 34034 ft | 402 kts | 269° |
| 2026-05-05 15:09 | 22.31461 | 116.56544 | 34037 ft | 402 kts | 269° |
| 2026-05-05 15:10 | 22.31321 | 116.50501 | 34031 ft | 402 kts | 269° |
| 2026-05-05 15:10 | 22.31178 | 116.44462 | 34032 ft | 402 kts | 269° |
| 2026-05-05 15:11 | 22.31036 | 116.38419 | 34031 ft | 402 kts | 269° |
| 2026-05-05 15:11 | 22.30889 | 116.32371 | 34032 ft | 402 kts | 269° |
| 2026-05-05 15:12 | 22.30742 | 116.26339 | 34029 ft | 402 kts | 269° |
| 2026-05-05 15:12 | 22.30592 | 116.20303 | 34029 ft | 403 kts | 269° |
| 2026-05-05 15:13 | 22.30440 | 116.14283 | 34030 ft | 403 kts | 269° |
| 2026-05-05 15:13 | 22.30287 | 116.08240 | 34029 ft | 403 kts | 269° |
| 2026-05-05 15:14 | 22.30129 | 116.02192 | 34029 ft | 403 kts | 269° |
| 2026-05-05 15:14 | 22.29969 | 115.96139 | 34029 ft | 403 kts | 269° |
| 2026-05-05 15:15 | 22.29807 | 115.90081 | 34029 ft | 404 kts | 269° |
| 2026-05-05 15:15 | 22.29644 | 115.84019 | 34029 ft | 404 kts | 269° |
| 2026-05-05 15:16 | 22.29481 | 115.77954 | 34029 ft | 404 kts | 269° |
| 2026-05-05 15:16 | 22.29321 | 115.71888 | 34026 ft | 404 kts | 269° |
| 2026-05-05 15:17 | 22.29162 | 115.65818 | 34024 ft | 404 kts | 269° |
| 2026-05-05 15:17 | 22.28994 | 115.59732 | 34025 ft | 405 kts | 270° |
| 2026-05-05 15:18 | 22.28828 | 115.53684 | 33629 ft | 398 kts | 270° |
| 2026-05-05 15:18 | 22.28745 | 115.50707 | 32985 ft | 396 kts | 270° |
| 2026-05-05 15:18 | 22.28662 | 115.47748 | 32362 ft | 393 kts | 270° |
| 2026-05-05 15:18 | 22.28578 | 115.44800 | 31771 ft | 392 kts | 270° |
| 2026-05-05 15:19 | 22.28495 | 115.41860 | 31203 ft | 391 kts | 270° |
| 2026-05-05 15:19 | 22.28411 | 115.38927 | 30665 ft | 390 kts | 270° |
| 2026-05-05 15:19 | 22.28327 | 115.36005 | 30146 ft | 389 kts | 270° |
| 2026-05-05 15:19 | 22.28243 | 115.33088 | 29518 ft | 388 kts | 270° |
| 2026-05-05 15:20 | 22.28156 | 115.30180 | 28900 ft | 387 kts | 270° |
| 2026-05-05 15:20 | 22.28066 | 115.27286 | 28348 ft | 384 kts | 270° |
| 2026-05-05 15:20 | 22.27977 | 115.24414 | 27817 ft | 382 kts | 270° |
| 2026-05-05 15:20 | 22.27889 | 115.21561 | 27300 ft | 379 kts | 270° |
| 2026-05-05 15:21 | 22.27801 | 115.18728 | 26764 ft | 377 kts | 269° |
| 2026-05-05 15:21 | 22.27713 | 115.15903 | 26231 ft | 375 kts | 269° |
| 2026-05-05 15:21 | 22.27625 | 115.13092 | 25724 ft | 373 kts | 269° |
| 2026-05-05 15:21 | 22.27538 | 115.10300 | 25233 ft | 372 kts | 269° |
| 2026-05-05 15:22 | 22.27451 | 115.07516 | 24714 ft | 371 kts | 268° |
| 2026-05-05 15:22 | 22.27362 | 115.04740 | 24199 ft | 369 kts | 268° |
| 2026-05-05 15:22 | 22.27275 | 115.01983 | 23695 ft | 366 kts | 268° |
| 2026-05-05 15:22 | 22.27185 | 114.99246 | 23117 ft | 363 kts | 268° |
| 2026-05-05 15:23 | 22.27098 | 114.96539 | 22578 ft | 359 kts | 268° |
| 2026-05-05 15:23 | 22.27011 | 114.93854 | 22037 ft | 355 kts | 268° |
| 2026-05-05 15:23 | 22.26810 | 114.91210 | 21516 ft | 352 kts | 263° |
| 2026-05-05 15:23 | 22.26462 | 114.88608 | 21023 ft | 349 kts | 262° |
| 2026-05-05 15:24 | 22.26098 | 114.86036 | 20554 ft | 345 kts | 262° |
| 2026-05-05 15:24 | 22.25737 | 114.83484 | 20097 ft | 343 kts | 262° |
| 2026-05-05 15:24 | 22.25386 | 114.80978 | 19654 ft | 342 kts | 263° |
| 2026-05-05 15:24 | 22.25028 | 114.78412 | 19217 ft | 341 kts | 263° |
| 2026-05-05 15:25 | 22.24680 | 114.75915 | 18806 ft | 341 kts | 263° |
| 2026-05-05 15:25 | 22.24329 | 114.73389 | 18388 ft | 341 kts | 263° |
| 2026-05-05 15:25 | 22.23975 | 114.70856 | 17930 ft | 341 kts | 263° |
| 2026-05-05 15:25 | 22.23623 | 114.68320 | 17475 ft | 342 kts | 263° |
| 2026-05-05 15:26 | 22.23270 | 114.65789 | 17039 ft | 341 kts | 262° |
| 2026-05-05 15:26 | 22.22916 | 114.63257 | 16608 ft | 341 kts | 262° |
| 2026-05-05 15:26 | 22.22563 | 114.60727 | 16190 ft | 341 kts | 262° |
| 2026-05-05 15:26 | 22.22209 | 114.58200 | 15770 ft | 340 kts | 262° |
| 2026-05-05 15:27 | 22.21854 | 114.55676 | 15368 ft | 339 kts | 262° |
| 2026-05-05 15:27 | 22.21503 | 114.53162 | 14977 ft | 338 kts | 262° |
| 2026-05-05 15:27 | 22.21151 | 114.50656 | 14568 ft | 338 kts | 261° |
| 2026-05-05 15:27 | 22.20801 | 114.48162 | 14162 ft | 334 kts | 261° |
| 2026-05-05 15:28 | 22.20455 | 114.45703 | 13750 ft | 329 kts | 261° |
| 2026-05-05 15:28 | 22.20114 | 114.43284 | 13329 ft | 324 kts | 261° |
| 2026-05-05 15:28 | 22.19778 | 114.40905 | 12955 ft | 318 kts | 261° |
| 2026-05-05 15:28 | 22.19448 | 114.38568 | 12598 ft | 312 kts | 261° |
| 2026-05-05 15:29 | 22.19121 | 114.36252 | 12227 ft | 312 kts | 261° |
| 2026-05-05 15:29 | 22.18794 | 114.33940 | 11852 ft | 312 kts | 261° |
| 2026-05-05 15:29 | 22.18465 | 114.31623 | 11480 ft | 312 kts | 261° |
| 2026-05-05 15:29 | 22.18137 | 114.29306 | 11124 ft | 312 kts | 261° |
| 2026-05-05 15:30 | 22.17807 | 114.26987 | 10780 ft | 311 kts | 261° |
| 2026-05-05 15:30 | 22.17484 | 114.24709 | 10550 ft | 303 kts | 261° |
| 2026-05-05 15:30 | 22.17170 | 114.22505 | 10387 ft | 292 kts | 261° |
| 2026-05-05 15:30 | 22.16867 | 114.20381 | 10227 ft | 282 kts | 261° |
| 2026-05-05 15:31 | 22.16570 | 114.18300 | 9980 ft | 279 kts | 260° |
| 2026-05-05 15:31 | 22.16276 | 114.16247 | 9657 ft | 275 kts | 261° |
| 2026-05-05 15:31 | 22.15985 | 114.14215 | 9314 ft | 274 kts | 260° |
| 2026-05-05 15:31 | 22.15694 | 114.12182 | 8986 ft | 274 kts | 260° |
| 2026-05-05 15:32 | 22.15403 | 114.10153 | 8665 ft | 274 kts | 261° |
| 2026-05-05 15:32 | 22.15112 | 114.08124 | 8373 ft | 273 kts | 260° |
| 2026-05-05 15:32 | 22.14823 | 114.06105 | 8074 ft | 272 kts | 261° |
| 2026-05-05 15:32 | 22.14535 | 114.04091 | 7781 ft | 271 kts | 260° |
| 2026-05-05 15:33 | 22.14246 | 114.02080 | 7481 ft | 271 kts | 260° |
| 2026-05-05 15:33 | 22.13956 | 114.00072 | 7168 ft | 271 kts | 260° |
| 2026-05-05 15:33 | 22.13665 | 113.98062 | 6875 ft | 271 kts | 260° |
| 2026-05-05 15:33 | 22.13376 | 113.96056 | 6574 ft | 271 kts | 260° |
| 2026-05-05 15:34 | 22.13085 | 113.94039 | 6258 ft | 272 kts | 260° |
| 2026-05-05 15:34 | 22.12795 | 113.92030 | 5951 ft | 270 kts | 259° |
| 2026-05-05 15:34 | 22.12506 | 113.90032 | 5660 ft | 268 kts | 259° |
| 2026-05-05 15:34 | 22.12219 | 113.88043 | 5353 ft | 268 kts | 260° |
| 2026-05-05 15:35 | 22.11932 | 113.86063 | 5055 ft | 267 kts | 259° |
| 2026-05-05 15:35 | 22.11647 | 113.84083 | 4743 ft | 267 kts | 258° |
| 2026-05-05 15:35 | 22.11359 | 113.82102 | 4412 ft | 268 kts | 259° |
| 2026-05-05 15:35 | 22.11133 | 113.80112 | 4089 ft | 269 kts | 266° |
| 2026-05-05 15:36 | 22.11503 | 113.78131 | 3767 ft | 274 kts | 294° |
| 2026-05-05 15:36 | 22.12678 | 113.76553 | 3544 ft | 269 kts | 322° |
| 2026-05-05 15:36 | 22.14286 | 113.75599 | 3428 ft | 258 kts | 335° |
| 2026-05-05 15:36 | 22.15900 | 113.74850 | 3464 ft | 250 kts | 336° |
| 2026-05-05 15:37 | 22.17472 | 113.74115 | 3456 ft | 241 kts | 336° |
| 2026-05-05 15:37 | 22.18957 | 113.73407 | 3454 ft | 226 kts | 336° |
| 2026-05-05 15:37 | 22.20390 | 113.72714 | 3454 ft | 226 kts | 335° |
| 2026-05-05 15:37 | 22.21802 | 113.72020 | 3475 ft | 227 kts | 335° |
| 2026-05-05 15:38 | 22.23305 | 113.71545 | 3402 ft | 226 kts | 2° |
| 2026-05-05 15:38 | 22.24757 | 113.72029 | 3197 ft | 217 kts | 40° |
| 2026-05-05 15:38 | 22.25888 | 113.73072 | 2975 ft | 208 kts | 40° |
| 2026-05-05 15:38 | 22.26970 | 113.74050 | 2761 ft | 199 kts | 46° |
| 2026-05-05 15:39 | 22.27795 | 113.75203 | 2503 ft | 190 kts | 62° |
| 2026-05-05 15:39 | 22.28372 | 113.76452 | 2260 ft | 181 kts | 70° |
| 2026-05-05 15:39 | 22.28793 | 113.77689 | 1953 ft | 172 kts | 77° |
| 2026-05-05 15:39 | 22.29152 | 113.78872 | 1774 ft | 157 kts | 72° |
| 2026-05-05 15:40 | 22.29470 | 113.79933 | 1592 ft | 138 kts | 75° |
| 2026-05-05 15:40 | 22.29798 | 113.80889 | 1388 ft | 136 kts | 74° |
| 2026-05-05 15:40 | 22.30101 | 113.81861 | 1258 ft | 138 kts | 72° |
| 2026-05-05 15:40 | 22.30427 | 113.82848 | 1085 ft | 142 kts | 73° |
| 2026-05-05 15:41 | 22.30754 | 113.83860 | 961 ft | 143 kts | 73° |
| 2026-05-05 15:41 | 22.31081 | 113.84885 | 739 ft | 146 kts | 72° |
| 2026-05-05 15:41 | 22.31418 | 113.85926 | 527 ft | 147 kts | 71° |
| 2026-05-05 15:41 | 22.31757 | 113.86958 | 360 ft | 146 kts | 72° |
| 2026-05-05 15:42 | 22.32089 | 113.87998 | 159 ft | 148 kts | 72° |
| 2026-05-05 15:42 | 22.32425 | 113.89038 | 52 ft | 140 kts | 72° |
| 2026-05-05 15:42 | 22.32711 | 113.89927 | 43 ft | 97 kts | 70° |
| 2026-05-05 15:42 | 22.32827 | 113.90340 | 42 ft | 32 kts | 88° |
| 2026-05-05 15:43 | 22.32806 | 113.90533 | 42 ft | 26 kts | 101° |
| 2026-05-05 15:43 | 22.32783 | 113.90715 | 41 ft | 24 kts | 72° |
| 2026-05-05 15:43 | 22.32841 | 113.90887 | 43 ft | 25 kts | 71° |
| 2026-05-05 15:43 | 22.32898 | 113.91071 | 43 ft | 27 kts | 69° |
| 2026-05-05 15:44 | 22.32963 | 113.91264 | 42 ft | 28 kts | 71° |
| 2026-05-05 15:44 | 22.33024 | 113.91459 | 43 ft | 25 kts | 71° |
| 2026-05-05 15:44 | 22.33076 | 113.91620 | 41 ft | 21 kts | 70° |
| 2026-05-05 15:44 | 22.33126 | 113.91774 | 43 ft | 22 kts | 71° |
| 2026-05-05 15:45 | 22.33179 | 113.91936 | 41 ft | 21 kts | 71° |
| 2026-05-05 15:45 | 22.33174 | 113.92020 | 42 ft | 13 kts | 144° |
| 2026-05-05 15:45 | 22.33083 | 113.92054 | 43 ft | 15 kts | 161° |
| 2026-05-05 15:45 | 22.32980 | 113.92091 | 43 ft | 17 kts | 161° |
| 2026-05-05 15:46 | 22.32866 | 113.92134 | 43 ft | 18 kts | 160° |
| 2026-05-05 15:46 | 22.32743 | 113.92181 | 43 ft | 17 kts | 160° |
| 2026-05-05 15:46 | 22.32666 | 113.92211 | 43 ft | 18 kts | 161° |
| 2026-05-05 15:46 | 22.32564 | 113.92249 | 43 ft | 15 kts | 161° |
| 2026-05-05 15:47 | 22.32461 | 113.92287 | 43 ft | 17 kts | 161° |
| 2026-05-05 15:47 | 22.32347 | 113.92329 | 42 ft | 18 kts | 160° |
| 2026-05-05 15:47 | 22.32235 | 113.92372 | 43 ft | 15 kts | 161° |
| 2026-05-05 15:47 | 22.32151 | 113.92407 | 43 ft | 9 kts | 144° |
| 2026-05-05 15:48 | 22.32146 | 113.92478 | 43 ft | 11 kts | 73° |
| 2026-05-05 15:48 | 22.32170 | 113.92565 | 42 ft | 13 kts | 72° |
| 2026-05-05 15:48 | 22.32194 | 113.92664 | 42 ft | 15 kts | 120° |
| 2026-05-05 15:48 | 22.32100 | 113.92716 | 41 ft | 16 kts | 161° |
| 2026-05-05 15:49 | 22.31988 | 113.92759 | 41 ft | 18 kts | 160° |
| 2026-05-05 15:49 | 22.31866 | 113.92809 | 42 ft | 20 kts | 156° |
| 2026-05-05 15:49 | 22.31787 | 113.92845 | 42 ft | 6 kts | 157° |
| 2026-05-05 15:49 | 22.31745 | 113.92864 | 42 ft | 2 kts | 159° |
| 2026-05-05 15:50 | 22.31739 | 113.92866 | 42 ft | 2 kts | 160° |
| 2026-05-05 15:50 | 22.31721 | 113.92874 | 42 ft | 4 kts | 160° |
| 2026-05-05 15:50 | 22.31689 | 113.92886 | 42 ft | 6 kts | 160° |
| 2026-05-05 15:50 | 22.31662 | 113.92923 | 42 ft | 8 kts | 91° |
| 2026-05-05 15:51 | 22.31665 | 113.92964 | 42 ft | 2 kts | 79° |
| 2026-05-05 15:51 | 22.31667 | 113.92973 | 42 ft | 0 kts | 81° |